createdAt,value
2024-03-16T00:00:00.936Z,9.32
2024-03-16T00:00:20.986Z,9.32
2024-03-16T00:00:30.959Z,9.32
2024-03-16T00:00:40.951Z,9.31
2024-03-16T00:00:50.987Z,9.31
2024-03-16T00:01:01.063Z,9.32
2024-03-16T00:01:11.098Z,9.31
2024-03-16T00:01:31.007Z,9.30
2024-03-16T00:01:40.923Z,9.30
2024-03-16T00:01:50.967Z,9.30
2024-03-16T00:02:00.977Z,9.30
2024-03-16T00:02:10.956Z,9.27
2024-03-16T00:02:20.928Z,9.26
2024-03-16T00:02:40.908Z,9.27
2024-03-16T00:02:50.917Z,9.24
2024-03-16T00:03:01.178Z,9.26
2024-03-16T00:03:10.936Z,9.24
2024-03-16T00:03:20.927Z,9.23
2024-03-16T00:03:31.532Z,9.22
2024-03-16T00:03:51.005Z,9.22
2024-03-16T00:04:00.986Z,9.24
2024-03-16T00:04:10.949Z,9.22
2024-03-16T00:04:20.900Z,9.22
2024-03-16T00:04:30.917Z,9.20
2024-03-16T00:04:40.938Z,9.22
2024-03-16T00:05:00.894Z,9.19
2024-03-16T00:05:10.914Z,9.19
2024-03-16T00:05:20.902Z,9.19
2024-03-16T00:05:30.924Z,9.19
2024-03-16T00:05:40.912Z,9.17
2024-03-16T00:05:50.888Z,9.17
2024-03-16T00:06:00.952Z,9.17
2024-03-16T00:06:20.914Z,9.15
2024-03-16T00:06:30.930Z,9.16
2024-03-16T00:06:40.898Z,9.15
2024-03-16T00:06:50.924Z,9.16
2024-03-16T00:07:00.938Z,9.15
2024-03-16T00:07:11.058Z,9.13
2024-03-16T00:07:30.892Z,9.13
2024-03-16T00:07:40.878Z,9.12
2024-03-16T00:07:50.874Z,9.12
2024-03-16T00:08:00.892Z,9.12
2024-03-16T00:08:10.872Z,9.12
2024-03-16T00:08:20.884Z,9.12
2024-03-16T00:08:40.875Z,9.15
2024-03-16T00:08:50.903Z,9.12
2024-03-16T00:09:00.896Z,9.13
2024-03-16T00:09:10.864Z,9.12
2024-03-16T00:09:20.875Z,9.12
2024-03-16T00:09:30.888Z,9.12
2024-03-16T00:09:40.961Z,9.10
2024-03-16T00:10:00.959Z,9.10
2024-03-16T00:10:10.929Z,9.10
2024-03-16T00:10:20.862Z,9.10
2024-03-16T00:10:30.874Z,9.10
2024-03-16T00:10:40.895Z,9.08
2024-03-16T00:10:50.924Z,9.10
2024-03-16T00:11:10.932Z,9.10
2024-03-16T00:11:20.886Z,9.08
2024-03-16T00:11:30.879Z,9.10
2024-03-16T00:11:40.928Z,9.08
2024-03-16T00:11:50.844Z,9.10
2024-03-16T00:12:00.878Z,9.08
2024-03-16T00:12:20.841Z,9.06
2024-03-16T00:12:30.870Z,9.06
2024-03-16T00:12:40.861Z,9.08
2024-03-16T00:12:50.861Z,9.06
2024-03-16T00:13:00.956Z,9.08
2024-03-16T00:13:10.900Z,9.08
2024-03-16T00:13:30.856Z,9.08
2024-03-16T00:13:40.845Z,9.04
2024-03-16T00:13:50.838Z,9.08
2024-03-16T00:14:00.836Z,9.04
2024-03-16T00:14:10.851Z,9.06
2024-03-16T00:14:20.836Z,9.06
2024-03-16T00:14:40.832Z,9.03
2024-03-16T00:14:50.821Z,9.04
2024-03-16T00:15:00.832Z,9.04
2024-03-16T00:15:10.824Z,9.04
2024-03-16T00:15:20.828Z,9.03
2024-03-16T00:15:30.872Z,9.04
2024-03-16T00:15:41.543Z,9.04
2024-03-16T00:16:00.912Z,9.03
2024-03-16T00:16:10.893Z,9.06
2024-03-16T00:16:20.824Z,9.04
2024-03-16T00:16:30.808Z,9.04
2024-03-16T00:16:40.864Z,9.03
2024-03-16T00:16:50.813Z,9.01
2024-03-16T00:17:10.805Z,9.03
2024-03-16T00:17:20.817Z,9.03
2024-03-16T00:17:30.812Z,9.03
2024-03-16T00:17:40.824Z,9.01
2024-03-16T00:17:50.910Z,9.01
2024-03-16T00:18:00.830Z,9.01
2024-03-16T00:18:11.530Z,9.01
2024-03-16T00:18:30.836Z,9.01
2024-03-16T00:18:40.901Z,9.00
2024-03-16T00:18:50.842Z,9.01
2024-03-16T00:19:00.918Z,9.00
2024-03-16T00:19:10.850Z,9.00
2024-03-16T00:19:20.818Z,9.00
2024-03-16T00:19:30.844Z,9.00
2024-03-16T00:19:50.797Z,8.98
2024-03-16T00:20:00.794Z,8.98
2024-03-16T00:20:10.791Z,9.00
2024-03-16T00:20:20.849Z,9.00
2024-03-16T00:20:30.788Z,9.00
2024-03-16T00:20:40.785Z,8.98
2024-03-16T00:21:00.804Z,8.97
2024-03-16T00:21:10.778Z,8.97
2024-03-16T00:21:20.776Z,8.98
2024-03-16T00:21:30.818Z,8.97
2024-03-16T00:21:40.840Z,8.97
2024-03-16T00:21:50.811Z,8.96
2024-03-16T00:22:00.980Z,8.97
2024-03-16T00:22:20.799Z,8.96
2024-03-16T00:22:30.769Z,8.97
2024-03-16T00:22:40.769Z,8.96
2024-03-16T00:22:50.785Z,8.96
2024-03-16T00:23:00.830Z,8.96
2024-03-16T00:23:10.777Z,8.96
2024-03-16T00:23:30.784Z,8.96
2024-03-16T00:23:40.762Z,8.94
2024-03-16T00:23:50.760Z,8.94
2024-03-16T00:24:00.771Z,8.93
2024-03-16T00:24:10.755Z,8.96
2024-03-16T00:24:20.752Z,8.93
2024-03-16T00:24:40.803Z,8.93
2024-03-16T00:24:50.840Z,8.94
2024-03-16T00:25:00.808Z,8.91
2024-03-16T00:25:10.791Z,8.93
2024-03-16T00:25:20.759Z,8.93
2024-03-16T00:25:30.747Z,8.91
2024-03-16T00:25:50.740Z,8.91
2024-03-16T00:26:00.751Z,8.89
2024-03-16T00:26:10.746Z,8.89
2024-03-16T00:26:20.776Z,8.89
2024-03-16T00:26:30.760Z,8.89
2024-03-16T00:26:40.736Z,8.88
2024-03-16T00:26:50.754Z,8.89
2024-03-16T00:27:10.729Z,8.86
2024-03-16T00:27:20.734Z,8.86
2024-03-16T00:27:30.765Z,8.86
2024-03-16T00:27:41.536Z,8.85
2024-03-16T00:27:50.786Z,8.86
2024-03-16T00:28:00.836Z,8.86
2024-03-16T00:28:20.739Z,8.86
2024-03-16T00:28:30.758Z,8.85
2024-03-16T00:28:40.735Z,8.85
2024-03-16T00:28:50.718Z,8.83
2024-03-16T00:29:00.734Z,8.85
2024-03-16T00:29:10.714Z,8.85
2024-03-16T00:29:30.730Z,8.85
2024-03-16T00:29:40.723Z,8.83
2024-03-16T00:29:50.712Z,8.83
2024-03-16T00:30:00.718Z,8.83
2024-03-16T00:30:10.749Z,8.82
2024-03-16T00:30:20.715Z,8.82
2024-03-16T00:30:40.835Z,8.82
2024-03-16T00:30:50.737Z,8.82
2024-03-16T00:31:02.143Z,8.82
2024-03-16T00:31:10.738Z,8.80
2024-03-16T00:31:20.801Z,8.80
2024-03-16T00:31:30.696Z,8.79
2024-03-16T00:31:51.514Z,8.80
2024-03-16T00:32:00.719Z,8.79
2024-03-16T00:32:10.695Z,8.79
2024-03-16T00:32:21.522Z,8.78
2024-03-16T00:32:30.711Z,8.78
2024-03-16T00:32:40.740Z,8.76
2024-03-16T00:33:00.724Z,8.78
2024-03-16T00:33:10.713Z,8.76
2024-03-16T00:33:20.695Z,8.76
2024-03-16T00:33:30.742Z,8.76
2024-03-16T00:33:40.736Z,8.76
2024-03-16T00:33:50.713Z,8.78
2024-03-16T00:34:10.739Z,8.76
2024-03-16T00:34:20.749Z,8.76
2024-03-16T00:34:30.683Z,8.73
2024-03-16T00:34:40.684Z,8.73
2024-03-16T00:34:50.696Z,8.75
2024-03-16T00:35:00.699Z,8.73
2024-03-16T00:35:20.692Z,8.75
2024-03-16T00:35:30.666Z,8.73
2024-03-16T00:35:40.674Z,8.73
2024-03-16T00:35:50.894Z,8.73
2024-03-16T00:36:00.687Z,8.73
2024-03-16T00:36:10.662Z,8.71
2024-03-16T00:36:30.706Z,8.71
2024-03-16T00:36:40.700Z,8.70
2024-03-16T00:36:50.705Z,8.71
2024-03-16T00:37:00.723Z,8.71
2024-03-16T00:37:10.706Z,8.71
2024-03-16T00:37:20.663Z,8.70
2024-03-16T00:37:40.682Z,8.70
2024-03-16T00:37:50.649Z,8.71
2024-03-16T00:38:00.652Z,8.71
2024-03-16T00:38:10.656Z,8.70
2024-03-16T00:38:21.515Z,8.70
2024-03-16T00:38:30.653Z,8.70
2024-03-16T00:38:50.786Z,8.70
2024-03-16T00:39:00.672Z,8.68
2024-03-16T00:39:10.639Z,8.70
2024-03-16T00:39:20.643Z,8.68
2024-03-16T00:39:30.663Z,8.70
2024-03-16T00:39:40.728Z,8.70
2024-03-16T00:40:01.313Z,8.70
2024-03-16T00:40:10.859Z,8.70
2024-03-16T00:40:20.993Z,8.70
2024-03-16T00:40:30.654Z,8.70
2024-03-16T00:40:40.704Z,8.70
2024-03-16T00:40:50.623Z,8.68
2024-03-16T00:41:10.691Z,8.67
2024-03-16T00:41:20.630Z,8.68
2024-03-16T00:41:30.631Z,8.67
2024-03-16T00:41:40.636Z,8.68
2024-03-16T00:41:50.625Z,8.67
2024-03-16T00:42:00.636Z,8.68
2024-03-16T00:42:10.677Z,8.68
2024-03-16T00:42:20.628Z,8.67
2024-03-16T00:42:40.658Z,8.67
2024-03-16T00:42:50.711Z,8.68
2024-03-16T00:43:00.675Z,8.68
2024-03-16T00:43:11.190Z,8.67
2024-03-16T00:43:20.644Z,8.65
2024-03-16T00:43:30.607Z,8.67
2024-03-16T00:43:40.623Z,8.65
2024-03-16T00:44:00.615Z,8.64
2024-03-16T00:44:10.624Z,8.64
2024-03-16T00:44:20.642Z,8.64
2024-03-16T00:44:30.630Z,8.65
2024-03-16T00:44:40.630Z,8.65
2024-03-16T00:44:50.610Z,8.64
2024-03-16T00:45:10.605Z,8.64
2024-03-16T00:45:20.611Z,8.65
2024-03-16T00:45:30.640Z,8.63
2024-03-16T00:45:40.683Z,8.63
2024-03-16T00:45:50.637Z,8.65
2024-03-16T00:46:00.711Z,8.65
2024-03-16T00:46:20.621Z,8.64
2024-03-16T00:46:30.589Z,8.64
2024-03-16T00:46:40.613Z,8.64
2024-03-16T00:46:50.596Z,8.64
2024-03-16T00:47:00.584Z,8.63
2024-03-16T00:47:10.629Z,8.63
2024-03-16T00:47:30.614Z,8.63
2024-03-16T00:47:40.759Z,8.61
2024-03-16T00:47:50.673Z,8.61
2024-03-16T00:48:00.640Z,8.60
2024-03-16T00:48:10.620Z,8.58
2024-03-16T00:48:20.576Z,8.61
2024-03-16T00:48:40.614Z,8.60
2024-03-16T00:48:50.591Z,8.60
2024-03-16T00:49:00.630Z,8.58
2024-03-16T00:49:10.619Z,8.58
2024-03-16T00:49:20.581Z,8.58
2024-03-16T00:49:30.570Z,8.58
2024-03-16T00:49:50.566Z,8.58
2024-03-16T00:50:00.557Z,8.58
2024-03-16T00:50:10.589Z,8.58
2024-03-16T00:50:20.554Z,8.57
2024-03-16T00:50:30.560Z,8.57
2024-03-16T00:50:40.560Z,8.57
2024-03-16T00:51:00.550Z,8.58
2024-03-16T00:51:10.553Z,8.55
2024-03-16T00:51:20.547Z,8.57
2024-03-16T00:51:31.256Z,8.57
2024-03-16T00:51:40.633Z,8.57
2024-03-16T00:51:50.587Z,8.55
2024-03-16T00:52:10.575Z,8.55
2024-03-16T00:52:20.573Z,8.55
2024-03-16T00:52:30.548Z,8.55
2024-03-16T00:52:40.548Z,8.55
2024-03-16T00:52:50.543Z,8.55
2024-03-16T00:53:00.538Z,8.55
2024-03-16T00:53:20.534Z,8.54
2024-03-16T00:53:30.546Z,8.54
2024-03-16T00:53:40.536Z,8.55
2024-03-16T00:53:50.547Z,8.55
2024-03-16T00:54:00.548Z,8.55
2024-03-16T00:54:10.534Z,8.54
2024-03-16T00:54:30.599Z,8.54
2024-03-16T00:54:40.641Z,8.52
2024-03-16T00:54:51.268Z,8.55
2024-03-16T00:55:00.593Z,8.54
2024-03-16T00:55:10.826Z,8.54
2024-03-16T00:55:20.566Z,8.54
2024-03-16T00:55:40.549Z,8.54
2024-03-16T00:55:50.517Z,8.54
2024-03-16T00:56:00.523Z,8.54
2024-03-16T00:56:10.514Z,8.52
2024-03-16T00:56:20.511Z,8.52
2024-03-16T00:56:30.539Z,8.54
2024-03-16T00:56:40.551Z,8.54
2024-03-16T00:57:00.510Z,8.54
2024-03-16T00:57:10.519Z,8.55
2024-03-16T00:57:20.504Z,8.52
2024-03-16T00:57:30.589Z,8.52
2024-03-16T00:57:40.693Z,8.52
2024-03-16T00:57:50.542Z,8.52
2024-03-16T00:58:10.619Z,8.52
2024-03-16T00:58:20.508Z,8.54
2024-03-16T00:58:30.512Z,8.52
2024-03-16T00:58:40.504Z,8.54
2024-03-16T00:58:50.531Z,8.54
2024-03-16T00:59:00.498Z,8.52
2024-03-16T00:59:20.691Z,8.54
2024-03-16T00:59:30.532Z,8.54
2024-03-16T00:59:40.517Z,8.52
2024-03-16T00:59:50.487Z,8.52
2024-03-16T01:00:00.531Z,8.52
2024-03-16T01:00:10.491Z,8.52
2024-03-16T01:00:30.550Z,8.52
2024-03-16T01:00:40.556Z,8.50
2024-03-16T01:00:50.607Z,8.54
2024-03-16T01:01:00.564Z,8.54
2024-03-16T01:01:10.554Z,8.52
2024-03-16T01:01:20.599Z,8.50
2024-03-16T01:01:40.513Z,8.50
2024-03-16T01:01:50.520Z,8.49
2024-03-16T01:02:00.559Z,8.50
2024-03-16T01:02:10.486Z,8.50
2024-03-16T01:02:20.469Z,8.49
2024-03-16T01:02:30.474Z,8.50
2024-03-16T01:02:50.504Z,8.49
2024-03-16T01:03:01.226Z,8.50
2024-03-16T01:03:10.475Z,8.50
2024-03-16T01:03:20.464Z,8.50
2024-03-16T01:03:30.476Z,8.49
2024-03-16T01:03:40.620Z,8.50
2024-03-16T01:04:00.483Z,8.47
2024-03-16T01:04:10.548Z,8.47
2024-03-16T01:04:21.021Z,8.49
2024-03-16T01:04:30.470Z,8.47
2024-03-16T01:04:40.540Z,8.49
2024-03-16T01:04:50.457Z,8.49
2024-03-16T01:05:10.455Z,8.49
2024-03-16T01:05:20.451Z,8.47
2024-03-16T01:05:30.454Z,8.50
2024-03-16T01:05:40.486Z,8.49
2024-03-16T01:05:50.456Z,8.46
2024-03-16T01:06:00.450Z,8.47
2024-03-16T01:06:20.439Z,8.50
2024-03-16T01:06:30.576Z,8.49
2024-03-16T01:06:40.475Z,8.47
2024-03-16T01:06:50.450Z,8.49
2024-03-16T01:07:00.530Z,8.47
2024-03-16T01:07:10.487Z,8.47
2024-03-16T01:07:31.017Z,8.50
2024-03-16T01:07:40.452Z,8.49
2024-03-16T01:07:50.429Z,8.47
2024-03-16T01:08:00.425Z,8.47
2024-03-16T01:08:10.431Z,8.47
2024-03-16T01:08:20.424Z,8.49
2024-03-16T01:08:40.422Z,8.47
2024-03-16T01:08:50.442Z,8.47
2024-03-16T01:09:01.042Z,8.47
2024-03-16T01:09:10.430Z,8.49
2024-03-16T01:09:20.414Z,8.46
2024-03-16T01:09:30.470Z,8.47
2024-03-16T01:09:40.483Z,8.46
2024-03-16T01:10:00.506Z,8.46
2024-03-16T01:10:10.520Z,8.46
2024-03-16T01:10:20.446Z,8.47
2024-03-16T01:10:31.015Z,8.46
2024-03-16T01:10:40.434Z,8.47
2024-03-16T01:10:50.425Z,8.47
2024-03-16T01:11:10.609Z,8.47
2024-03-16T01:11:20.433Z,8.47
2024-03-16T01:11:30.439Z,8.46
2024-03-16T01:11:40.406Z,8.47
2024-03-16T01:11:50.407Z,8.49
2024-03-16T01:12:00.394Z,8.47
2024-03-16T01:12:20.393Z,8.46
2024-03-16T01:12:30.433Z,8.46
2024-03-16T01:12:40.454Z,8.46
2024-03-16T01:12:50.502Z,8.45
2024-03-16T01:13:00.418Z,8.46
2024-03-16T01:13:10.455Z,8.45
2024-03-16T01:13:30.387Z,8.45
2024-03-16T01:13:40.406Z,8.45
2024-03-16T01:13:50.386Z,8.45
2024-03-16T01:14:01.152Z,8.43
2024-03-16T01:14:10.384Z,8.43
2024-03-16T01:14:20.376Z,8.42
2024-03-16T01:14:40.372Z,8.43
2024-03-16T01:14:50.399Z,8.43
2024-03-16T01:15:00.393Z,8.42
2024-03-16T01:15:10.386Z,8.40
2024-03-16T01:15:20.390Z,8.42
2024-03-16T01:15:30.406Z,8.40
2024-03-16T01:15:40.429Z,8.40
2024-03-16T01:16:00.404Z,8.40
2024-03-16T01:16:11.264Z,8.39
2024-03-16T01:16:20.369Z,8.39
2024-03-16T01:16:30.376Z,8.39
2024-03-16T01:16:40.357Z,8.37
2024-03-16T01:16:50.361Z,8.36
2024-03-16T01:17:00.402Z,8.39
2024-03-16T01:17:20.354Z,8.36
2024-03-16T01:17:30.395Z,8.37
2024-03-16T01:17:40.385Z,8.36
2024-03-16T01:17:50.368Z,8.36
2024-03-16T01:18:00.393Z,8.36
2024-03-16T01:18:10.433Z,8.36
2024-03-16T01:18:30.389Z,8.36
2024-03-16T01:18:40.397Z,8.36
2024-03-16T01:18:50.365Z,8.36
2024-03-16T01:19:00.401Z,8.34
2024-03-16T01:19:10.393Z,8.36
2024-03-16T01:19:20.340Z,8.36
2024-03-16T01:19:40.331Z,8.34
2024-03-16T01:19:50.373Z,8.32
2024-03-16T01:20:00.334Z,8.32
2024-03-16T01:20:10.455Z,8.34
2024-03-16T01:20:20.346Z,8.32
2024-03-16T01:20:30.338Z,8.32
2024-03-16T01:20:50.343Z,8.32
2024-03-16T01:21:00.337Z,8.34
2024-03-16T01:21:10.423Z,8.34
2024-03-16T01:21:20.335Z,8.31
2024-03-16T01:21:30.383Z,8.32
2024-03-16T01:21:40.367Z,8.32
2024-03-16T01:21:50.388Z,8.32
2024-03-16T01:22:10.371Z,8.32
2024-03-16T01:22:20.317Z,8.32
2024-03-16T01:22:30.324Z,8.32
2024-03-16T01:22:40.317Z,8.31
2024-03-16T01:22:51.050Z,8.31
2024-03-16T01:23:00.323Z,8.31
2024-03-16T01:23:20.316Z,8.31
2024-03-16T01:23:30.314Z,8.31
2024-03-16T01:23:40.317Z,8.32
2024-03-16T01:23:50.328Z,8.31
2024-03-16T01:24:00.304Z,8.29
2024-03-16T01:24:10.313Z,8.29
2024-03-16T01:24:30.402Z,8.31
2024-03-16T01:24:40.406Z,8.29
2024-03-16T01:24:50.339Z,8.29
2024-03-16T01:25:00.406Z,8.29
2024-03-16T01:25:10.376Z,8.28
2024-03-16T01:25:20.310Z,8.28
2024-03-16T01:25:40.300Z,8.28
2024-03-16T01:25:50.304Z,8.28
2024-03-16T01:26:00.293Z,8.28
2024-03-16T01:26:10.291Z,8.28
2024-03-16T01:26:20.370Z,8.27
2024-03-16T01:26:30.300Z,8.27
2024-03-16T01:26:50.296Z,8.25
2024-03-16T01:27:00.279Z,8.25
2024-03-16T01:27:10.286Z,8.27
2024-03-16T01:27:20.277Z,8.25
2024-03-16T01:27:30.309Z,8.25
2024-03-16T01:27:40.366Z,8.25
2024-03-16T01:28:00.370Z,8.24
2024-03-16T01:28:10.334Z,8.22
2024-03-16T01:28:20.268Z,8.22
2024-03-16T01:28:30.289Z,8.24
2024-03-16T01:28:40.270Z,8.21
2024-03-16T01:28:50.271Z,8.21
2024-03-16T01:29:10.269Z,8.20
2024-03-16T01:29:20.263Z,8.21
2024-03-16T01:29:30.278Z,8.20
2024-03-16T01:29:40.263Z,8.20
2024-03-16T01:29:50.280Z,8.18
2024-03-16T01:30:00.335Z,8.18
2024-03-16T01:30:21.040Z,8.18
2024-03-16T01:30:30.312Z,8.18
2024-03-16T01:30:41.097Z,8.17
2024-03-16T01:30:50.310Z,8.18
2024-03-16T01:31:00.441Z,8.17
2024-03-16T01:31:12.653Z,8.17
2024-03-16T01:31:21.522Z,8.17
2024-03-16T01:31:31.453Z,8.14
2024-03-16T01:31:42.201Z,8.17
2024-03-16T01:31:51.450Z,8.14
2024-03-16T01:32:01.449Z,8.13
2024-03-16T01:32:11.441Z,8.13
2024-03-16T01:32:31.537Z,8.12
2024-03-16T01:32:41.467Z,8.13
2024-03-16T01:32:52.075Z,8.12
2024-03-16T01:33:01.539Z,8.12
2024-03-16T01:33:11.526Z,8.12
2024-03-16T01:33:21.439Z,8.12
2024-03-16T01:33:41.487Z,8.10
2024-03-16T01:33:51.481Z,8.10
2024-03-16T01:34:01.496Z,8.12
2024-03-16T01:34:11.492Z,8.12
2024-03-16T01:34:22.024Z,8.10
2024-03-16T01:34:31.427Z,8.10
2024-03-16T01:34:51.441Z,8.09
2024-03-16T01:35:01.453Z,8.09
2024-03-16T01:35:11.424Z,8.10
2024-03-16T01:35:21.430Z,8.09
2024-03-16T01:35:31.421Z,8.09
2024-03-16T01:35:41.442Z,8.09
2024-03-16T01:36:01.421Z,8.07
2024-03-16T01:36:11.443Z,8.07
2024-03-16T01:36:22.023Z,8.07
2024-03-16T01:36:31.457Z,8.07
2024-03-16T01:36:41.433Z,8.07
2024-03-16T01:36:51.458Z,8.06
2024-03-16T01:37:11.540Z,8.07
2024-03-16T01:37:22.241Z,8.06
2024-03-16T01:37:31.483Z,8.07
2024-03-16T01:37:41.412Z,8.06
2024-03-16T01:37:51.445Z,8.06
2024-03-16T01:38:01.411Z,8.06
2024-03-16T01:38:21.406Z,8.04
2024-03-16T01:38:31.397Z,8.04
2024-03-16T01:38:41.401Z,8.04
2024-03-16T01:38:51.396Z,8.04
2024-03-16T01:39:01.410Z,8.04
2024-03-16T01:39:11.465Z,8.03
2024-03-16T01:39:31.448Z,8.03
2024-03-16T01:39:41.414Z,8.04
2024-03-16T01:39:51.488Z,8.02
2024-03-16T01:40:01.546Z,8.00
2024-03-16T01:40:11.408Z,8.02
2024-03-16T01:40:22.241Z,8.02
2024-03-16T01:40:41.412Z,8.00
2024-03-16T01:40:51.377Z,8.00
2024-03-16T01:41:01.384Z,8.00
2024-03-16T01:41:11.380Z,8.00
2024-03-16T01:41:21.384Z,7.99
2024-03-16T01:41:31.376Z,7.99
2024-03-16T01:41:51.379Z,7.99
2024-03-16T01:42:02.069Z,7.96
2024-03-16T01:42:11.373Z,8.00
2024-03-16T01:42:21.406Z,7.99
2024-03-16T01:42:31.401Z,7.96
2024-03-16T01:42:41.400Z,8.00
2024-03-16T01:43:01.415Z,7.96
2024-03-16T01:43:11.422Z,7.95
2024-03-16T01:43:21.405Z,7.99
2024-03-16T01:43:31.361Z,7.96
2024-03-16T01:43:41.367Z,7.96
2024-03-16T01:43:51.362Z,7.96
2024-03-16T01:44:11.385Z,7.94
2024-03-16T01:44:21.364Z,7.95
2024-03-16T01:44:31.353Z,7.95
2024-03-16T01:44:41.362Z,7.94
2024-03-16T01:44:51.396Z,7.94
2024-03-16T01:45:01.364Z,7.94
2024-03-16T01:45:21.360Z,7.95
2024-03-16T01:45:31.430Z,7.94
2024-03-16T01:45:41.384Z,7.92
2024-03-16T01:45:51.423Z,7.92
2024-03-16T01:46:01.474Z,7.92
2024-03-16T01:46:11.376Z,7.94
2024-03-16T01:46:31.337Z,7.92
2024-03-16T01:46:42.146Z,7.91
2024-03-16T01:46:51.338Z,7.92
2024-03-16T01:47:01.355Z,7.92
2024-03-16T01:47:11.334Z,7.91
2024-03-16T01:47:21.427Z,7.91
2024-03-16T01:47:41.373Z,7.92
2024-03-16T01:47:51.358Z,7.92
2024-03-16T01:48:01.375Z,7.91
2024-03-16T01:48:11.356Z,7.92
2024-03-16T01:48:22.234Z,7.92
2024-03-16T01:48:31.342Z,7.92
2024-03-16T01:48:51.390Z,7.91
2024-03-16T01:49:01.383Z,7.91
2024-03-16T01:49:11.375Z,7.91
2024-03-16T01:49:22.245Z,7.91
2024-03-16T01:49:31.316Z,7.91
2024-03-16T01:49:41.322Z,7.89
2024-03-16T01:50:01.384Z,7.91
2024-03-16T01:50:11.358Z,7.91
2024-03-16T01:50:21.328Z,7.91
2024-03-16T01:50:31.308Z,7.89
2024-03-16T01:50:41.319Z,7.91
2024-03-16T01:50:51.312Z,7.89
2024-03-16T01:51:11.309Z,7.91
2024-03-16T01:51:21.332Z,7.89
2024-03-16T01:51:31.308Z,7.91
2024-03-16T01:51:41.328Z,7.91
2024-03-16T01:51:51.370Z,7.91
2024-03-16T01:52:01.451Z,7.91
2024-03-16T01:52:21.298Z,7.92
2024-03-16T01:52:31.292Z,7.89
2024-03-16T01:52:41.320Z,7.91
2024-03-16T01:52:51.297Z,7.92
2024-03-16T01:53:01.291Z,7.92
2024-03-16T01:53:11.286Z,7.92
2024-03-16T01:53:31.299Z,7.91
2024-03-16T01:53:41.288Z,7.91
2024-03-16T01:53:51.290Z,7.91
2024-03-16T01:54:01.297Z,7.89
2024-03-16T01:54:11.281Z,7.91
2024-03-16T01:54:21.288Z,7.92
2024-03-16T01:54:41.344Z,7.91
2024-03-16T01:54:51.325Z,7.92
2024-03-16T01:55:01.379Z,7.91
2024-03-16T01:55:11.356Z,7.92
2024-03-16T01:55:21.303Z,7.92
2024-03-16T01:55:31.284Z,7.92
2024-03-16T01:55:51.293Z,7.91
2024-03-16T01:56:01.298Z,7.92
2024-03-16T01:56:11.269Z,7.91
2024-03-16T01:56:21.292Z,7.92
2024-03-16T01:56:31.261Z,7.92
2024-03-16T01:56:41.281Z,7.92
2024-03-16T01:56:51.318Z,7.91
2024-03-16T01:57:11.262Z,7.92
2024-03-16T01:57:21.270Z,7.92
2024-03-16T01:57:31.296Z,7.92
2024-03-16T01:57:41.336Z,7.92
2024-03-16T01:57:51.272Z,7.92
2024-03-16T01:58:01.334Z,7.92
2024-03-16T01:58:21.306Z,7.95
2024-03-16T01:58:31.268Z,7.92
2024-03-16T01:58:41.250Z,7.94
2024-03-16T01:58:51.244Z,7.92
2024-03-16T01:59:01.262Z,7.92
2024-03-16T01:59:11.243Z,7.92
2024-03-16T01:59:31.247Z,7.94
2024-03-16T01:59:41.250Z,7.94
2024-03-16T01:59:51.277Z,7.94
2024-03-16T02:00:01.308Z,7.92
2024-03-16T02:00:11.245Z,7.94
2024-03-16T02:00:21.242Z,7.92
2024-03-16T02:00:41.268Z,7.94
2024-03-16T02:00:51.330Z,7.92
2024-03-16T02:01:01.309Z,7.94
2024-03-16T02:01:11.376Z,7.94
2024-03-16T02:01:21.360Z,7.92
2024-03-16T02:01:31.308Z,7.94
2024-03-16T02:01:51.245Z,7.94
2024-03-16T02:02:01.294Z,7.94
2024-03-16T02:02:12.029Z,7.94
2024-03-16T02:02:21.230Z,7.94
2024-03-16T02:02:31.221Z,7.95
2024-03-16T02:02:42.069Z,7.94
2024-03-16T02:02:51.273Z,7.95
2024-03-16T02:03:22.221Z,7.94
2024-03-16T02:03:29.375Z,7.92
2024-03-16T02:03:39.378Z,7.95
2024-03-16T02:03:49.352Z,7.95
2024-03-16T02:03:59.409Z,7.94
2024-03-16T02:04:09.399Z,7.94
2024-03-16T02:04:29.316Z,7.95
2024-03-16T02:04:39.359Z,7.95
2024-03-16T02:04:49.316Z,7.95
2024-03-16T02:04:59.363Z,7.94
2024-03-16T02:05:09.389Z,7.94
2024-03-16T02:05:19.322Z,7.94
2024-03-16T02:05:39.333Z,7.94
2024-03-16T02:05:49.340Z,7.94
2024-03-16T02:05:59.304Z,7.94
2024-03-16T02:06:09.312Z,7.94
2024-03-16T02:06:19.301Z,7.95
2024-03-16T02:06:29.352Z,7.94
2024-03-16T02:06:49.307Z,7.94
2024-03-16T02:06:59.406Z,7.94
2024-03-16T02:07:09.346Z,7.94
2024-03-16T02:07:20.237Z,7.94
2024-03-16T02:07:29.306Z,7.94
2024-03-16T02:07:39.333Z,7.95
2024-03-16T02:07:59.292Z,7.95
2024-03-16T02:08:09.308Z,7.95
2024-03-16T02:08:19.308Z,7.94
2024-03-16T02:08:30.027Z,7.95
2024-03-16T02:08:39.281Z,7.94
2024-03-16T02:08:49.291Z,7.95
2024-03-16T02:09:09.277Z,7.95
2024-03-16T02:09:19.319Z,7.94
2024-03-16T02:09:29.298Z,7.94
2024-03-16T02:09:39.277Z,7.94
2024-03-16T02:09:49.282Z,7.95
2024-03-16T02:09:59.329Z,7.94
2024-03-16T02:10:10.815Z,7.95
2024-03-16T02:10:29.273Z,7.94
2024-03-16T02:10:39.347Z,7.94
2024-03-16T02:10:49.309Z,7.94
2024-03-16T02:10:59.299Z,7.94
2024-03-16T02:11:09.288Z,7.95
2024-03-16T02:11:19.316Z,7.94
2024-03-16T02:11:39.262Z,7.94
2024-03-16T02:11:49.256Z,7.92
2024-03-16T02:11:59.283Z,7.94
2024-03-16T02:12:09.254Z,7.94
2024-03-16T02:12:19.292Z,7.94
2024-03-16T02:12:29.282Z,7.95
2024-03-16T02:12:49.391Z,7.95
2024-03-16T02:12:59.309Z,7.94
2024-03-16T02:13:09.367Z,7.94
2024-03-16T02:13:20.058Z,7.95
2024-03-16T02:13:29.256Z,7.92
2024-03-16T02:13:39.249Z,7.95
2024-03-16T02:13:50.113Z,7.95
2024-03-16T02:14:09.261Z,7.95
2024-03-16T02:14:19.274Z,7.95
2024-03-16T02:14:29.280Z,7.95
2024-03-16T02:14:39.239Z,7.94
2024-03-16T02:14:49.246Z,7.94
2024-03-16T02:14:59.229Z,7.94
2024-03-16T02:15:09.268Z,7.94
2024-03-16T02:15:29.279Z,7.95
2024-03-16T02:15:39.262Z,7.94
2024-03-16T02:15:49.258Z,7.95
2024-03-16T02:15:59.283Z,7.95
2024-03-16T02:16:09.240Z,7.94
2024-03-16T02:16:19.226Z,7.95
2024-03-16T02:16:39.220Z,7.95
2024-03-16T02:16:49.280Z,7.95
2024-03-16T02:16:59.223Z,7.95
2024-03-16T02:17:09.218Z,7.94
2024-03-16T02:17:19.213Z,7.95
2024-03-16T02:17:29.290Z,7.95
2024-03-16T02:17:39.269Z,7.94
2024-03-16T02:17:49.332Z,7.94
2024-03-16T02:18:09.290Z,7.94
2024-03-16T02:18:19.216Z,7.95
2024-03-16T02:18:29.251Z,7.95
2024-03-16T02:18:39.238Z,7.95
2024-03-16T02:18:49.238Z,7.94
2024-03-16T02:18:59.233Z,7.95
2024-03-16T02:19:19.200Z,7.94
2024-03-16T02:19:29.202Z,7.95
2024-03-16T02:19:39.210Z,7.95
2024-03-16T02:19:49.213Z,7.95
2024-03-16T02:19:59.215Z,7.95
2024-03-16T02:20:10.024Z,7.96
2024-03-16T02:20:20.144Z,7.95
2024-03-16T02:20:30.150Z,7.95
2024-03-16T02:20:49.194Z,7.95
2024-03-16T02:20:59.188Z,7.94
2024-03-16T02:21:09.193Z,7.95
2024-03-16T02:21:19.202Z,7.95
2024-03-16T02:21:29.277Z,7.94
2024-03-16T02:21:39.235Z,7.95
2024-03-16T02:21:59.238Z,7.95
2024-03-16T02:22:09.209Z,7.95
2024-03-16T02:22:19.177Z,7.95
2024-03-16T02:22:29.232Z,7.95
2024-03-16T02:22:39.183Z,7.95
2024-03-16T02:22:49.765Z,7.94
2024-03-16T02:22:59.224Z,7.95
2024-03-16T02:23:19.175Z,7.96
2024-03-16T02:23:29.173Z,7.95
2024-03-16T02:23:39.166Z,7.96
2024-03-16T02:23:49.186Z,7.94
2024-03-16T02:23:59.160Z,7.95
2024-03-16T02:24:09.177Z,7.95
2024-03-16T02:24:29.201Z,7.94
2024-03-16T02:24:39.222Z,7.95
2024-03-16T02:24:49.202Z,7.95
2024-03-16T02:24:59.184Z,7.96
2024-03-16T02:25:09.261Z,7.96
2024-03-16T02:25:19.302Z,7.95
2024-03-16T02:25:39.212Z,7.96
2024-03-16T02:25:49.158Z,7.96
2024-03-16T02:25:59.177Z,7.95
2024-03-16T02:26:09.172Z,7.96
2024-03-16T02:26:19.158Z,7.96
2024-03-16T02:26:29.150Z,7.96
2024-03-16T02:26:49.176Z,7.96
2024-03-16T02:26:59.144Z,7.99
2024-03-16T02:27:09.168Z,7.95
2024-03-16T02:27:19.139Z,7.99
2024-03-16T02:27:29.172Z,7.96
2024-03-16T02:27:39.229Z,7.96
2024-03-16T02:27:49.204Z,7.96
2024-03-16T02:28:09.396Z,7.95
2024-03-16T02:28:19.135Z,7.96
2024-03-16T02:28:29.136Z,7.96
2024-03-16T02:28:39.140Z,7.96
2024-03-16T02:28:49.134Z,7.99
2024-03-16T02:28:59.129Z,7.96
2024-03-16T02:29:19.200Z,7.99
2024-03-16T02:29:29.134Z,7.96
2024-03-16T02:29:39.130Z,7.99
2024-03-16T02:29:49.180Z,7.99
2024-03-16T02:29:59.123Z,7.99
2024-03-16T02:30:09.119Z,7.99
2024-03-16T02:30:29.161Z,7.96
2024-03-16T02:30:39.130Z,7.99
2024-03-16T02:30:49.139Z,7.96
2024-03-16T02:30:59.134Z,7.99
2024-03-16T02:31:09.182Z,7.99
2024-03-16T02:31:19.112Z,8.00
2024-03-16T02:31:39.116Z,8.00
2024-03-16T02:31:49.877Z,7.99
2024-03-16T02:31:59.101Z,8.00
2024-03-16T02:32:09.137Z,8.00
2024-03-16T02:32:19.740Z,8.00
2024-03-16T02:32:29.114Z,8.00
2024-03-16T02:32:49.131Z,8.00
2024-03-16T02:32:59.136Z,8.02
2024-03-16T02:33:09.143Z,8.02
2024-03-16T02:33:19.126Z,8.02
2024-03-16T02:33:29.220Z,8.00
2024-03-16T02:33:39.128Z,7.99
2024-03-16T02:33:59.185Z,8.00
2024-03-16T02:34:09.154Z,8.00
2024-03-16T02:34:19.137Z,7.99
2024-03-16T02:34:29.095Z,8.02